sensor_id;sensor_type;location;lat;lon;timestamp;temperature;humidity
2721;DHT22;1368;49.484;11.112;2024-02-15T00:00:20;12.60;99.90
2721;DHT22;1368;49.484;11.112;2024-02-15T00:02:46;12.70;99.90
2721;DHT22;1368;49.484;11.112;2024-02-15T00:05:12;12.70;99.90
2721;DHT22;1368;49.484;11.112;2024-02-15T00:07:38;12.70;99.90
2721;DHT22;1368;49.484;11.112;2024-02-15T00:10:04;12.70;99.90
2721;DHT22;1368;49.484;11.112;2024-02-15T00:12:30;12.30;99.90
2721;DHT22;1368;49.484;11.112;2024-02-15T00:14:56;12.00;99.90
2721;DHT22;1368;49.484;11.112;2024-02-15T00:17:25;12.10;99.90
2721;DHT22;1368;49.484;11.112;2024-02-15T00:19:51;12.20;99.90
2721;DHT22;1368;49.484;11.112;2024-02-15T00:22:16;12.30;99.90
2721;DHT22;1368;49.484;11.112;2024-02-15T00:24:42;12.40;99.90
2721;DHT22;1368;49.484;11.112;2024-02-15T00:27:08;12.50;99.90
2721;DHT22;1368;49.484;11.112;2024-02-15T00:29:34;12.60;99.90
2721;DHT22;1368;49.484;11.112;2024-02-15T00:32:00;12.60;99.90
2721;DHT22;1368;49.484;11.112;2024-02-15T00:34:26;12.40;99.90
2721;DHT22;1368;49.484;11.112;2024-02-15T00:36:52;12.50;99.90
2721;DHT22;1368;49.484;11.112;2024-02-15T00:39:18;12.60;99.90
2721;DHT22;1368;49.484;11.112;2024-02-15T00:41:45;12.60;99.90
2721;DHT22;1368;49.484;11.112;2024-02-15T00:44:11;12.70;99.90
2721;DHT22;1368;49.484;11.112;2024-02-15T00:46:37;12.80;99.90
2721;DHT22;1368;49.484;11.112;2024-02-15T00:49:04;13.30;99.90
2721;DHT22;1368;49.484;11.112;2024-02-15T00:51:33;12.90;99.90
2721;DHT22;1368;49.484;11.112;2024-02-15T00:54:00;12.80;99.90
2721;DHT22;1368;49.484;11.112;2024-02-15T00:56:26;12.80;99.90
2721;DHT22;1368;49.484;11.112;2024-02-15T00:58:53;12.80;99.90
2721;DHT22;1368;49.484;11.112;2024-02-15T01:01:18;12.70;99.90
2721;DHT22;1368;49.484;11.112;2024-02-15T01:03:44;12.50;99.90
2721;DHT22;1368;49.484;11.112;2024-02-15T01:06:09;12.50;99.90
2721;DHT22;1368;49.484;11.112;2024-02-15T01:08:35;12.60;99.90
2721;DHT22;1368;49.484;11.112;2024-02-15T01:11:02;12.70;99.90
2721;DHT22;1368;49.484;11.112;2024-02-15T01:13:28;12.70;99.90
2721;DHT22;1368;49.484;11.112;2024-02-15T01:15:53;13.30;99.90
2721;DHT22;1368;49.484;11.112;2024-02-15T01:18:19;12.90;99.90
2721;DHT22;1368;49.484;11.112;2024-02-15T01:20:44;12.90;99.90
2721;DHT22;1368;49.484;11.112;2024-02-15T01:23:10;12.80;99.90
2721;DHT22;1368;49.484;11.112;2024-02-15T01:25:36;12.70;99.90
2721;DHT22;1368;49.484;11.112;2024-02-15T01:28:01;12.80;99.90
2721;DHT22;1368;49.484;11.112;2024-02-15T01:30:27;12.80;99.90
2721;DHT22;1368;49.484;11.112;2024-02-15T01:32:54;12.90;99.90
2721;DHT22;1368;49.484;11.112;2024-02-15T01:35:20;12.90;99.90
2721;DHT22;1368;49.484;11.112;2024-02-15T01:37:45;13.00;99.90
2721;DHT22;1368;49.484;11.112;2024-02-15T01:40:11;13.10;99.90
2721;DHT22;1368;49.484;11.112;2024-02-15T01:42:38;12.90;99.90
2721;DHT22;1368;49.484;11.112;2024-02-15T01:45:05;12.80;99.90
2721;DHT22;1368;49.484;11.112;2024-02-15T01:47:31;12.00;99.90
2721;DHT22;1368;49.484;11.112;2024-02-15T01:49:57;12.20;99.90
2721;DHT22;1368;49.484;11.112;2024-02-15T01:52:23;12.30;99.90
2721;DHT22;1368;49.484;11.112;2024-02-15T01:54:51;12.40;99.90
2721;DHT22;1368;49.484;11.112;2024-02-15T01:57:18;12.20;99.90
2721;DHT22;1368;49.484;11.112;2024-02-15T01:59:46;11.60;99.90
2721;DHT22;1368;49.484;11.112;2024-02-15T02:02:12;11.50;99.90
2721;DHT22;1368;49.484;11.112;2024-02-15T02:04:40;11.50;99.90
2721;DHT22;1368;49.484;11.112;2024-02-15T02:07:07;11.70;99.90
2721;DHT22;1368;49.484;11.112;2024-02-15T02:09:33;11.90;99.90
2721;DHT22;1368;49.484;11.112;2024-02-15T02:11:58;11.80;99.90
2721;DHT22;1368;49.484;11.112;2024-02-15T02:14:25;11.50;99.90
2721;DHT22;1368;49.484;11.112;2024-02-15T02:16:50;11.70;99.90
2721;DHT22;1368;49.484;11.112;2024-02-15T02:19:17;11.90;99.90
2721;DHT22;1368;49.484;11.112;2024-02-15T02:21:43;12.00;99.90
2721;DHT22;1368;49.484;11.112;2024-02-15T02:24:21;12.10;99.90
2721;DHT22;1368;49.484;11.112;2024-02-15T02:26:47;11.80;99.90
2721;DHT22;1368;49.484;11.112;2024-02-15T02:29:14;11.80;99.90
2721;DHT22;1368;49.484;11.112;2024-02-15T02:31:40;11.90;99.90
2721;DHT22;1368;49.484;11.112;2024-02-15T02:34:05;12.00;99.90
2721;DHT22;1368;49.484;11.112;2024-02-15T02:36:33;12.40;99.90
2721;DHT22;1368;49.484;11.112;2024-02-15T02:38:58;12.20;99.90
2721;DHT22;1368;49.484;11.112;2024-02-15T02:41:26;12.30;99.90
2721;DHT22;1368;49.484;11.112;2024-02-15T02:43:54;12.20;99.90
2721;DHT22;1368;49.484;11.112;2024-02-15T02:46:20;12.10;99.90
2721;DHT22;1368;49.484;11.112;2024-02-15T02:48:46;12.10;99.90
2721;DHT22;1368;49.484;11.112;2024-02-15T02:51:12;12.20;99.90
2721;DHT22;1368;49.484;11.112;2024-02-15T02:53:37;12.30;99.90
2721;DHT22;1368;49.484;11.112;2024-02-15T02:56:03;12.30;99.90
2721;DHT22;1368;49.484;11.112;2024-02-15T02:58:29;12.30;99.90
2721;DHT22;1368;49.484;11.112;2024-02-15T03:00:55;12.40;99.90
2721;DHT22;1368;49.484;11.112;2024-02-15T03:03:21;12.20;99.90
2721;DHT22;1368;49.484;11.112;2024-02-15T03:05:49;12.30;99.90
2721;DHT22;1368;49.484;11.112;2024-02-15T03:08:15;12.40;99.90
2721;DHT22;1368;49.484;11.112;2024-02-15T03:10:43;12.40;99.90
2721;DHT22;1368;49.484;11.112;2024-02-15T03:13:08;12.60;99.90
2721;DHT22;1368;49.484;11.112;2024-02-15T03:15:37;12.60;99.90
2721;DHT22;1368;49.484;11.112;2024-02-15T03:18:03;12.70;99.90
2721;DHT22;1368;49.484;11.112;2024-02-15T03:20:32;12.80;99.90
2721;DHT22;1368;49.484;11.112;2024-02-15T03:22:59;12.90;99.90
2721;DHT22;1368;49.484;11.112;2024-02-15T03:25:26;12.80;99.90
2721;DHT22;1368;49.484;11.112;2024-02-15T03:27:56;12.90;99.90
2721;DHT22;1368;49.484;11.112;2024-02-15T03:30:22;12.90;99.90
2721;DHT22;1368;49.484;11.112;2024-02-15T03:32:52;12.90;99.90
2721;DHT22;1368;49.484;11.112;2024-02-15T03:35:18;12.90;99.90
2721;DHT22;1368;49.484;11.112;2024-02-15T03:37:44;12.80;99.90
2721;DHT22;1368;49.484;11.112;2024-02-15T03:40:10;12.70;99.90
2721;DHT22;1368;49.484;11.112;2024-02-15T03:42:36;12.40;99.90
2721;DHT22;1368;49.484;11.112;2024-02-15T03:45:03;12.30;99.90
2721;DHT22;1368;49.484;11.112;2024-02-15T03:47:34;12.10;99.90
2721;DHT22;1368;49.484;11.112;2024-02-15T03:50:01;12.10;99.90
2721;DHT22;1368;49.484;11.112;2024-02-15T03:52:27;12.00;99.90
2721;DHT22;1368;49.484;11.112;2024-02-15T03:54:55;12.00;99.90
2721;DHT22;1368;49.484;11.112;2024-02-15T03:57:25;12.00;99.90
2721;DHT22;1368;49.484;11.112;2024-02-15T03:59:52;11.80;99.90
2721;DHT22;1368;49.484;11.112;2024-02-15T04:02:24;11.80;99.90
2721;DHT22;1368;49.484;11.112;2024-02-15T04:04:55;11.90;99.90
2721;DHT22;1368;49.484;11.112;2024-02-15T04:07:21;12.00;99.90
2721;DHT22;1368;49.484;11.112;2024-02-15T04:09:47;11.90;99.90
2721;DHT22;1368;49.484;11.112;2024-02-15T04:12:13;11.90;99.90
2721;DHT22;1368;49.484;11.112;2024-02-15T04:14:40;12.00;99.90
2721;DHT22;1368;49.484;11.112;2024-02-15T04:17:06;12.10;99.90
2721;DHT22;1368;49.484;11.112;2024-02-15T04:19:31;12.10;99.90
2721;DHT22;1368;49.484;11.112;2024-02-15T04:21:57;12.00;99.90
2721;DHT22;1368;49.484;11.112;2024-02-15T04:24:24;11.70;99.90
2721;DHT22;1368;49.484;11.112;2024-02-15T04:26:51;11.60;99.90
2721;DHT22;1368;49.484;11.112;2024-02-15T04:29:16;11.60;99.90
2721;DHT22;1368;49.484;11.112;2024-02-15T04:31:43;11.60;99.90
2721;DHT22;1368;49.484;11.112;2024-02-15T04:34:08;11.60;99.90
2721;DHT22;1368;49.484;11.112;2024-02-15T04:36:35;11.60;99.90
2721;DHT22;1368;49.484;11.112;2024-02-15T04:39:01;12.00;99.90
2721;DHT22;1368;49.484;11.112;2024-02-15T04:41:29;11.40;99.90
2721;DHT22;1368;49.484;11.112;2024-02-15T04:43:55;11.20;99.90
2721;DHT22;1368;49.484;11.112;2024-02-15T04:46:21;11.20;99.90
2721;DHT22;1368;49.484;11.112;2024-02-15T04:48:48;11.20;99.90
2721;DHT22;1368;49.484;11.112;2024-02-15T04:51:15;11.20;99.90
2721;DHT22;1368;49.484;11.112;2024-02-15T04:53:45;11.20;99.90
2721;DHT22;1368;49.484;11.112;2024-02-15T04:56:12;11.30;99.90
2721;DHT22;1368;49.484;11.112;2024-02-15T04:58:42;11.40;99.90
2721;DHT22;1368;49.484;11.112;2024-02-15T05:01:14;11.30;99.90
2721;DHT22;1368;49.484;11.112;2024-02-15T05:03:41;11.20;99.90
2721;DHT22;1368;49.484;11.112;2024-02-15T05:06:07;11.30;99.90
2721;DHT22;1368;49.484;11.112;2024-02-15T05:08:33;11.80;99.90
2721;DHT22;1368;49.484;11.112;2024-02-15T05:11:02;11.30;99.90
2721;DHT22;1368;49.484;11.112;2024-02-15T05:13:29;11.30;99.90
2721;DHT22;1368;49.484;11.112;2024-02-15T05:15:55;11.30;99.90
2721;DHT22;1368;49.484;11.112;2024-02-15T05:18:21;11.50;99.90
2721;DHT22;1368;49.484;11.112;2024-02-15T05:20:46;11.60;99.90
2721;DHT22;1368;49.484;11.112;2024-02-15T05:23:12;11.60;99.90
2721;DHT22;1368;49.484;11.112;2024-02-15T05:25:37;11.60;99.90
2721;DHT22;1368;49.484;11.112;2024-02-15T05:28:03;11.60;99.90
2721;DHT22;1368;49.484;11.112;2024-02-15T05:30:31;11.60;99.90
2721;DHT22;1368;49.484;11.112;2024-02-15T05:32:58;11.70;99.90
2721;DHT22;1368;49.484;11.112;2024-02-15T05:35:24;11.80;99.90
2721;DHT22;1368;49.484;11.112;2024-02-15T05:37:50;11.80;99.90
2721;DHT22;1368;49.484;11.112;2024-02-15T05:40:18;11.80;99.90
2721;DHT22;1368;49.484;11.112;2024-02-15T05:42:45;12.30;99.90
2721;DHT22;1368;49.484;11.112;2024-02-15T05:45:40;11.90;99.90
2721;DHT22;1368;49.484;11.112;2024-02-15T05:48:06;12.00;99.90
2721;DHT22;1368;49.484;11.112;2024-02-15T05:50:32;12.20;99.90
2721;DHT22;1368;49.484;11.112;2024-02-15T05:52:58;12.20;99.90
2721;DHT22;1368;49.484;11.112;2024-02-15T05:55:24;12.20;99.90
2721;DHT22;1368;49.484;11.112;2024-02-15T05:57:51;12.30;99.90
2721;DHT22;1368;49.484;11.112;2024-02-15T06:00:18;12.50;99.90
2721;DHT22;1368;49.484;11.112;2024-02-15T06:02:44;12.30;99.90
2721;DHT22;1368;49.484;11.112;2024-02-15T06:05:09;12.10;99.90
2721;DHT22;1368;49.484;11.112;2024-02-15T06:07:35;12.20;99.90
2721;DHT22;1368;49.484;11.112;2024-02-15T06:10:01;12.20;99.90
2721;DHT22;1368;49.484;11.112;2024-02-15T06:12:29;12.00;99.90
2721;DHT22;1368;49.484;11.112;2024-02-15T06:14:55;11.60;99.90
2721;DHT22;1368;49.484;11.112;2024-02-15T06:17:20;11.40;99.90
2721;DHT22;1368;49.484;11.112;2024-02-15T06:19:46;11.20;99.90
2721;DHT22;1368;49.484;11.112;2024-02-15T06:22:12;11.20;99.90
2721;DHT22;1368;49.484;11.112;2024-02-15T06:24:38;11.40;99.90
2721;DHT22;1368;49.484;11.112;2024-02-15T06:27:04;11.50;99.90
2721;DHT22;1368;49.484;11.112;2024-02-15T06:29:29;11.60;99.90
2721;DHT22;1368;49.484;11.112;2024-02-15T06:32:13;11.60;99.90
2721;DHT22;1368;49.484;11.112;2024-02-15T06:34:58;11.50;99.90
2721;DHT22;1368;49.484;11.112;2024-02-15T06:37:42;11.70;99.90
2721;DHT22;1368;49.484;11.112;2024-02-15T06:40:26;11.80;99.90
2721;DHT22;1368;49.484;11.112;2024-02-15T06:42:51;11.80;99.90
2721;DHT22;1368;49.484;11.112;2024-02-15T06:45:17;11.90;99.90
2721;DHT22;1368;49.484;11.112;2024-02-15T06:47:43;12.00;99.90
2721;DHT22;1368;49.484;11.112;2024-02-15T06:50:15;12.00;99.90
2721;DHT22;1368;49.484;11.112;2024-02-15T06:52:42;12.40;99.90
2721;DHT22;1368;49.484;11.112;2024-02-15T06:55:08;11.90;99.90
2721;DHT22;1368;49.484;11.112;2024-02-15T06:57:37;12.10;99.90
2721;DHT22;1368;49.484;11.112;2024-02-15T07:00:06;12.20;99.90
2721;DHT22;1368;49.484;11.112;2024-02-15T07:02:35;12.30;99.90
2721;DHT22;1368;49.484;11.112;2024-02-15T07:05:01;12.30;99.90
2721;DHT22;1368;49.484;11.112;2024-02-15T07:07:28;12.30;99.90
2721;DHT22;1368;49.484;11.112;2024-02-15T07:09:54;12.40;99.90
2721;DHT22;1368;49.484;11.112;2024-02-15T07:12:19;12.10;99.90
2721;DHT22;1368;49.484;11.112;2024-02-15T07:14:47;12.00;99.90
2721;DHT22;1368;49.484;11.112;2024-02-15T07:17:12;12.10;99.90
2721;DHT22;1368;49.484;11.112;2024-02-15T07:19:44;12.00;99.90
2721;DHT22;1368;49.484;11.112;2024-02-15T07:22:10;12.20;99.90
2721;DHT22;1368;49.484;11.112;2024-02-15T07:24:37;12.20;99.90
2721;DHT22;1368;49.484;11.112;2024-02-15T07:27:05;12.30;99.90
2721;DHT22;1368;49.484;11.112;2024-02-15T07:29:30;12.40;99.90
2721;DHT22;1368;49.484;11.112;2024-02-15T07:31:58;12.50;99.90
2721;DHT22;1368;49.484;11.112;2024-02-15T07:34:24;12.50;99.90
2721;DHT22;1368;49.484;11.112;2024-02-15T07:36:51;12.50;99.90
2721;DHT22;1368;49.484;11.112;2024-02-15T07:39:17;12.60;99.90
2721;DHT22;1368;49.484;11.112;2024-02-15T07:41:53;12.40;99.90
2721;DHT22;1368;49.484;11.112;2024-02-15T07:44:18;12.40;99.90
2721;DHT22;1368;49.484;11.112;2024-02-15T07:46:46;12.60;99.90
2721;DHT22;1368;49.484;11.112;2024-02-15T07:49:11;12.70;99.90
2721;DHT22;1368;49.484;11.112;2024-02-15T07:51:37;13.50;99.90
2721;DHT22;1368;49.484;11.112;2024-02-15T07:54:03;12.90;99.90
2721;DHT22;1368;49.484;11.112;2024-02-15T07:56:29;12.90;99.90
2721;DHT22;1368;49.484;11.112;2024-02-15T07:58:55;12.80;99.90
2721;DHT22;1368;49.484;11.112;2024-02-15T08:01:21;13.00;99.90
2721;DHT22;1368;49.484;11.112;2024-02-15T08:03:47;13.10;99.90
2721;DHT22;1368;49.484;11.112;2024-02-15T08:06:13;13.10;99.90
2721;DHT22;1368;49.484;11.112;2024-02-15T08:08:44;13.20;99.90
2721;DHT22;1368;49.484;11.112;2024-02-15T08:11:13;13.30;99.90
2721;DHT22;1368;49.484;11.112;2024-02-15T08:13:50;13.40;99.90
2721;DHT22;1368;49.484;11.112;2024-02-15T08:16:18;13.60;99.90
2721;DHT22;1368;49.484;11.112;2024-02-15T08:18:44;13.60;99.90
2721;DHT22;1368;49.484;11.112;2024-02-15T08:21:11;13.80;99.90
2721;DHT22;1368;49.484;11.112;2024-02-15T08:23:37;13.50;99.90
2721;DHT22;1368;49.484;11.112;2024-02-15T08:26:03;13.60;99.90
2721;DHT22;1368;49.484;11.112;2024-02-15T08:28:28;13.30;99.90
2721;DHT22;1368;49.484;11.112;2024-02-15T08:30:55;13.10;99.90
2721;DHT22;1368;49.484;11.112;2024-02-15T08:33:24;13.40;99.90
2721;DHT22;1368;49.484;11.112;2024-02-15T08:35:50;13.30;99.90
2721;DHT22;1368;49.484;11.112;2024-02-15T08:38:16;13.30;99.90
2721;DHT22;1368;49.484;11.112;2024-02-15T08:40:42;13.00;99.90
2721;DHT22;1368;49.484;11.112;2024-02-15T08:43:09;13.30;99.90
2721;DHT22;1368;49.484;11.112;2024-02-15T08:45:35;13.20;99.90
2721;DHT22;1368;49.484;11.112;2024-02-15T08:48:00;12.90;99.90
2721;DHT22;1368;49.484;11.112;2024-02-15T08:50:30;12.60;99.90
2721;DHT22;1368;49.484;11.112;2024-02-15T08:52:56;12.60;99.90
2721;DHT22;1368;49.484;11.112;2024-02-15T08:55:22;12.70;99.90
2721;DHT22;1368;49.484;11.112;2024-02-15T08:57:52;12.80;99.90
2721;DHT22;1368;49.484;11.112;2024-02-15T09:00:18;12.90;99.90
2721;DHT22;1368;49.484;11.112;2024-02-15T09:02:44;13.20;99.90
2721;DHT22;1368;49.484;11.112;2024-02-15T09:05:11;13.30;99.90
2721;DHT22;1368;49.484;11.112;2024-02-15T09:07:43;13.50;99.90
2721;DHT22;1368;49.484;11.112;2024-02-15T09:10:09;13.70;99.90
2721;DHT22;1368;49.484;11.112;2024-02-15T09:12:36;13.70;99.90
2721;DHT22;1368;49.484;11.112;2024-02-15T09:15:06;13.70;99.90
2721;DHT22;1368;49.484;11.112;2024-02-15T09:17:31;13.70;99.90
2721;DHT22;1368;49.484;11.112;2024-02-15T09:19:58;13.60;99.90
2721;DHT22;1368;49.484;11.112;2024-02-15T09:22:24;13.80;99.90
2721;DHT22;1368;49.484;11.112;2024-02-15T09:24:49;13.60;99.90
2721;DHT22;1368;49.484;11.112;2024-02-15T09:27:15;13.60;99.90
2721;DHT22;1368;49.484;11.112;2024-02-15T09:29:40;13.60;99.90
2721;DHT22;1368;49.484;11.112;2024-02-15T09:32:07;13.50;99.90
2721;DHT22;1368;49.484;11.112;2024-02-15T09:34:33;13.90;99.90
2721;DHT22;1368;49.484;11.112;2024-02-15T09:36:58;14.10;99.90
2721;DHT22;1368;49.484;11.112;2024-02-15T09:39:24;14.00;99.90
2721;DHT22;1368;49.484;11.112;2024-02-15T09:41:50;13.90;99.90
2721;DHT22;1368;49.484;11.112;2024-02-15T09:44:21;14.10;99.90
2721;DHT22;1368;49.484;11.112;2024-02-15T09:46:49;14.40;99.90
2721;DHT22;1368;49.484;11.112;2024-02-15T09:49:18;14.30;99.90
2721;DHT22;1368;49.484;11.112;2024-02-15T09:51:44;14.30;99.90
2721;DHT22;1368;49.484;11.112;2024-02-15T09:54:11;14.30;99.90
2721;DHT22;1368;49.484;11.112;2024-02-15T09:56:40;14.20;99.90
2721;DHT22;1368;49.484;11.112;2024-02-15T09:59:06;13.90;99.90
2721;DHT22;1368;49.484;11.112;2024-02-15T10:01:34;13.90;99.90
2721;DHT22;1368;49.484;11.112;2024-02-15T10:04:05;14.00;99.90
2721;DHT22;1368;49.484;11.112;2024-02-15T10:06:32;14.00;99.90
2721;DHT22;1368;49.484;11.112;2024-02-15T10:09:27;13.90;99.90
2721;DHT22;1368;49.484;11.112;2024-02-15T10:11:57;14.20;99.90
2721;DHT22;1368;49.484;11.112;2024-02-15T10:14:23;14.50;99.90
2721;DHT22;1368;49.484;11.112;2024-02-15T10:16:49;14.80;99.90
2721;DHT22;1368;49.484;11.112;2024-02-15T10:19:15;14.80;99.90
2721;DHT22;1368;49.484;11.112;2024-02-15T10:21:41;14.70;99.90
2721;DHT22;1368;49.484;11.112;2024-02-15T10:24:08;14.50;99.90
2721;DHT22;1368;49.484;11.112;2024-02-15T10:26:35;14.50;99.90
2721;DHT22;1368;49.484;11.112;2024-02-15T10:29:08;14.80;99.90
2721;DHT22;1368;49.484;11.112;2024-02-15T10:31:38;15.20;99.90
2721;DHT22;1368;49.484;11.112;2024-02-15T10:34:06;15.30;99.90
2721;DHT22;1368;49.484;11.112;2024-02-15T10:36:33;15.20;99.90
2721;DHT22;1368;49.484;11.112;2024-02-15T10:41:44;15.00;99.90
2721;DHT22;1368;49.484;11.112;2024-02-15T10:44:16;15.00;99.90
2721;DHT22;1368;49.484;11.112;2024-02-15T10:46:42;15.30;99.90
2721;DHT22;1368;49.484;11.112;2024-02-15T10:49:08;15.10;99.90
2721;DHT22;1368;49.484;11.112;2024-02-15T10:51:35;15.10;99.90
2721;DHT22;1368;49.484;11.112;2024-02-15T10:54:06;15.70;99.90
2721;DHT22;1368;49.484;11.112;2024-02-15T10:56:36;15.90;99.90
2721;DHT22;1368;49.484;11.112;2024-02-15T10:59:19;15.60;99.90
2721;DHT22;1368;49.484;11.112;2024-02-15T11:01:54;15.60;99.90
2721;DHT22;1368;49.484;11.112;2024-02-15T11:04:23;16.00;99.90
2721;DHT22;1368;49.484;11.112;2024-02-15T11:06:55;15.80;99.90
2721;DHT22;1368;49.484;11.112;2024-02-15T11:09:21;15.90;99.90
2721;DHT22;1368;49.484;11.112;2024-02-15T11:11:48;15.80;99.90
2721;DHT22;1368;49.484;11.112;2024-02-15T11:14:29;16.20;99.90
2721;DHT22;1368;49.484;11.112;2024-02-15T11:16:56;16.40;99.90
2721;DHT22;1368;49.484;11.112;2024-02-15T11:21:58;17.00;99.90
2721;DHT22;1368;49.484;11.112;2024-02-15T11:24:31;17.00;99.90
2721;DHT22;1368;49.484;11.112;2024-02-15T11:27:06;16.60;99.90
2721;DHT22;1368;49.484;11.112;2024-02-15T11:29:51;16.90;99.90
2721;DHT22;1368;49.484;11.112;2024-02-15T11:35:12;17.80;99.90
2721;DHT22;1368;49.484;11.112;2024-02-15T11:40:23;18.40;99.90
2721;DHT22;1368;49.484;11.112;2024-02-15T11:42:52;18.60;99.90
2721;DHT22;1368;49.484;11.112;2024-02-15T11:45:19;18.60;99.90
2721;DHT22;1368;49.484;11.112;2024-02-15T11:47:49;18.60;99.90
2721;DHT22;1368;49.484;11.112;2024-02-15T11:50:20;18.60;99.90
2721;DHT22;1368;49.484;11.112;2024-02-15T11:52:47;18.60;99.90
2721;DHT22;1368;49.484;11.112;2024-02-15T11:55:17;19.00;99.90
2721;DHT22;1368;49.484;11.112;2024-02-15T11:57:54;18.90;99.90
2721;DHT22;1368;49.484;11.112;2024-02-15T12:00:26;19.10;99.90
2721;DHT22;1368;49.484;11.112;2024-02-15T12:03:13;18.90;99.90
2721;DHT22;1368;49.484;11.112;2024-02-15T12:05:57;18.70;99.90
2721;DHT22;1368;49.484;11.112;2024-02-15T12:08:48;18.90;99.90
2721;DHT22;1368;49.484;11.112;2024-02-15T12:11:33;18.90;99.90
2721;DHT22;1368;49.484;11.112;2024-02-15T12:14:18;18.90;99.90
2721;DHT22;1368;49.484;11.112;2024-02-15T12:17:09;18.90;99.90
2721;DHT22;1368;49.484;11.112;2024-02-15T12:19:55;19.00;99.90
2721;DHT22;1368;49.484;11.112;2024-02-15T12:22:25;19.10;99.90
2721;DHT22;1368;49.484;11.112;2024-02-15T12:24:56;19.40;99.90
2721;DHT22;1368;49.484;11.112;2024-02-15T12:27:22;19.20;99.90
2721;DHT22;1368;49.484;11.112;2024-02-15T12:32:25;18.80;99.90
2721;DHT22;1368;49.484;11.112;2024-02-15T12:34:51;18.50;99.90
2721;DHT22;1368;49.484;11.112;2024-02-15T12:37:20;17.80;99.90
2721;DHT22;1368;49.484;11.112;2024-02-15T12:39:47;17.40;99.90
2721;DHT22;1368;49.484;11.112;2024-02-15T12:42:14;17.50;99.90
2721;DHT22;1368;49.484;11.112;2024-02-15T12:44:44;17.60;99.90
2721;DHT22;1368;49.484;11.112;2024-02-15T12:47:24;17.70;99.90
2721;DHT22;1368;49.484;11.112;2024-02-15T12:49:50;18.00;99.90
2721;DHT22;1368;49.484;11.112;2024-02-15T12:52:35;18.30;99.90
2721;DHT22;1368;49.484;11.112;2024-02-15T12:55:12;18.40;99.90
2721;DHT22;1368;49.484;11.112;2024-02-15T12:57:39;18.40;99.90
2721;DHT22;1368;49.484;11.112;2024-02-15T13:00:10;18.50;99.90
2721;DHT22;1368;49.484;11.112;2024-02-15T13:02:39;18.60;99.90
2721;DHT22;1368;49.484;11.112;2024-02-15T13:05:05;18.10;99.90
2721;DHT22;1368;49.484;11.112;2024-02-15T13:07:33;18.00;99.90
2721;DHT22;1368;49.484;11.112;2024-02-15T13:09:59;18.20;99.90
2721;DHT22;1368;49.484;11.112;2024-02-15T13:12:25;18.30;99.90
2721;DHT22;1368;49.484;11.112;2024-02-15T13:14:50;18.40;99.90
2721;DHT22;1368;49.484;11.112;2024-02-15T13:17:16;18.50;99.90
2721;DHT22;1368;49.484;11.112;2024-02-15T13:19:48;18.60;99.90
2721;DHT22;1368;49.484;11.112;2024-02-15T13:22:15;18.60;99.90
2721;DHT22;1368;49.484;11.112;2024-02-15T13:24:46;17.90;99.90
2721;DHT22;1368;49.484;11.112;2024-02-15T13:27:12;18.30;99.90
2721;DHT22;1368;49.484;11.112;2024-02-15T13:29:38;17.40;99.90
2721;DHT22;1368;49.484;11.112;2024-02-15T13:32:05;17.70;99.90
2721;DHT22;1368;49.484;11.112;2024-02-15T13:34:31;17.40;99.90
2721;DHT22;1368;49.484;11.112;2024-02-15T13:36:58;17.40;99.90
2721;DHT22;1368;49.484;11.112;2024-02-15T13:39:28;17.40;99.90
2721;DHT22;1368;49.484;11.112;2024-02-15T13:41:59;16.90;99.90
2721;DHT22;1368;49.484;11.112;2024-02-15T13:44:25;17.20;99.90
2721;DHT22;1368;49.484;11.112;2024-02-15T13:46:50;17.40;99.90
2721;DHT22;1368;49.484;11.112;2024-02-15T13:49:16;16.90;99.90
2721;DHT22;1368;49.484;11.112;2024-02-15T13:51:42;17.00;99.90
2721;DHT22;1368;49.484;11.112;2024-02-15T13:54:07;17.20;99.90
2721;DHT22;1368;49.484;11.112;2024-02-15T13:56:33;17.50;99.90
2721;DHT22;1368;49.484;11.112;2024-02-15T13:58:59;17.60;99.90
2721;DHT22;1368;49.484;11.112;2024-02-15T14:01:24;18.30;99.90
2721;DHT22;1368;49.484;11.112;2024-02-15T14:03:50;18.20;99.90
2721;DHT22;1368;49.484;11.112;2024-02-15T14:06:17;18.40;99.90
2721;DHT22;1368;49.484;11.112;2024-02-15T14:08:44;18.40;99.90
2721;DHT22;1368;49.484;11.112;2024-02-15T14:11:09;18.30;99.90
2721;DHT22;1368;49.484;11.112;2024-02-15T14:13:35;18.20;99.90
2721;DHT22;1368;49.484;11.112;2024-02-15T14:16:01;17.90;99.90
2721;DHT22;1368;49.484;11.112;2024-02-15T14:18:28;17.60;99.90
2721;DHT22;1368;49.484;11.112;2024-02-15T14:20:54;17.50;99.90
2721;DHT22;1368;49.484;11.112;2024-02-15T14:23:20;17.50;99.90
2721;DHT22;1368;49.484;11.112;2024-02-15T14:25:46;17.80;99.90
2721;DHT22;1368;49.484;11.112;2024-02-15T14:28:11;18.00;99.90
2721;DHT22;1368;49.484;11.112;2024-02-15T14:30:39;17.80;99.90
2721;DHT22;1368;49.484;11.112;2024-02-15T14:33:23;17.50;99.90
2721;DHT22;1368;49.484;11.112;2024-02-15T14:35:50;17.50;99.90
2721;DHT22;1368;49.484;11.112;2024-02-15T14:38:18;17.40;99.90
2721;DHT22;1368;49.484;11.112;2024-02-15T14:40:47;17.80;99.90
2721;DHT22;1368;49.484;11.112;2024-02-15T14:43:22;17.20;99.90
2721;DHT22;1368;49.484;11.112;2024-02-15T14:45:48;16.60;99.90
2721;DHT22;1368;49.484;11.112;2024-02-15T14:48:14;17.00;99.90
2721;DHT22;1368;49.484;11.112;2024-02-15T14:50:43;16.40;99.90
2721;DHT22;1368;49.484;11.112;2024-02-15T14:53:09;16.70;99.90
2721;DHT22;1368;49.484;11.112;2024-02-15T14:55:36;16.30;99.90
2721;DHT22;1368;49.484;11.112;2024-02-15T14:58:05;16.80;99.90
2721;DHT22;1368;49.484;11.112;2024-02-15T15:00:36;16.40;99.90
2721;DHT22;1368;49.484;11.112;2024-02-15T15:03:03;16.10;99.90
2721;DHT22;1368;49.484;11.112;2024-02-15T15:05:29;16.00;99.90
2721;DHT22;1368;49.484;11.112;2024-02-15T15:08:13;15.90;99.90
2721;DHT22;1368;49.484;11.112;2024-02-15T15:10:59;16.00;99.90
2721;DHT22;1368;49.484;11.112;2024-02-15T15:13:43;16.00;99.90
2721;DHT22;1368;49.484;11.112;2024-02-15T15:16:08;15.80;99.90
2721;DHT22;1368;49.484;11.112;2024-02-15T15:18:40;15.90;99.90
2721;DHT22;1368;49.484;11.112;2024-02-15T15:21:05;15.90;99.90
2721;DHT22;1368;49.484;11.112;2024-02-15T15:23:31;15.70;99.90
2721;DHT22;1368;49.484;11.112;2024-02-15T15:26:03;15.80;99.90
2721;DHT22;1368;49.484;11.112;2024-02-15T15:28:28;16.00;99.90
2721;DHT22;1368;49.484;11.112;2024-02-15T15:30:54;16.30;99.90
2721;DHT22;1368;49.484;11.112;2024-02-15T15:33:20;16.40;99.90
2721;DHT22;1368;49.484;11.112;2024-02-15T15:35:47;16.30;99.90
2721;DHT22;1368;49.484;11.112;2024-02-15T15:38:14;16.30;99.90
2721;DHT22;1368;49.484;11.112;2024-02-15T15:40:39;16.30;99.90
2721;DHT22;1368;49.484;11.112;2024-02-15T15:43:05;16.30;99.90
2721;DHT22;1368;49.484;11.112;2024-02-15T15:45:34;16.60;99.90
2721;DHT22;1368;49.484;11.112;2024-02-15T15:48:00;16.20;99.90
2721;DHT22;1368;49.484;11.112;2024-02-15T15:50:26;16.40;99.90
2721;DHT22;1368;49.484;11.112;2024-02-15T15:52:54;16.30;99.90
2721;DHT22;1368;49.484;11.112;2024-02-15T15:55:19;16.20;99.90
2721;DHT22;1368;49.484;11.112;2024-02-15T15:57:45;16.10;99.90
2721;DHT22;1368;49.484;11.112;2024-02-15T16:00:12;16.10;99.90
2721;DHT22;1368;49.484;11.112;2024-02-15T16:02:44;16.00;99.90